Time;durP1;ratioP1;P1;durP2;ratioP2;P2;SDS_P1;SDS_P2;PMS_P1;PMS_P2;Temp;Humidity;BMP_temperature;BMP_pressure;BME280_temperature;BME280_humidity;BME280_pressure;Samples;Min_cycle;Max_cycle;Signal;HPM_P1;HPM_P2
2021/12/13 00:00:29;;;;;;;;;;;10.50;87.30;;;;;;4985672;28;19933;-82
2021/12/13 00:02:57;;;;;;;;;;;10.60;87.30;;;;;;4985369;28;19929;-82
2021/12/13 00:05:30;;;;;;;;;;;10.60;87.40;;;;;;4960038;28;19926;-83
2021/12/13 00:08:01;;;;;;;;;;;10.50;87.50;;;;;;4962174;28;19925;-83
2021/12/13 00:10:36;;;;;;;;;;;10.50;87.60;;;;;;4984892;28;19930;-82
2021/12/13 00:13:14;;;;;;;;;;;10.50;87.80;;;;;;4973751;28;19933;-83
2021/12/13 00:15:51;;;;;;;;;;;10.40;87.90;;;;;;4975516;28;19926;-82
2021/12/13 00:18:21;;;;;;;;;;;10.30;88.10;;;;;;4962203;28;20379;-82
2021/12/13 00:20:52;;;;;;;;;;;10.30;88.20;;;;;;4981830;28;19929;-82
2021/12/13 00:23:21;;;;;;;;;;;10.30;88.40;;;;;;4976751;28;19926;-82
2021/12/13 00:25:50;;;;;;;;;;;10.30;88.50;;;;;;4980368;28;19941;-82
2021/12/13 00:28:21;;;;;;;;;;;10.30;88.60;;;;;;4963684;28;19933;-82
2021/12/13 00:31:11;;;;;;;;;;;10.30;88.70;;;;;;4983129;28;19926;-82
2021/12/13 00:33:39;;;;;;;;;;;10.30;88.80;;;;;;4987164;28;19933;-82
2021/12/13 00:36:27;;;;;;;;;;;10.30;88.80;;;;;;4969369;28;19972;-83
2021/12/13 00:38:59;;;;;;;;;;;10.30;88.80;;;;;;4956681;28;20300;-82
2021/12/13 00:41:28;;;;;;;;;;;10.30;88.80;;;;;;4975870;28;19927;-83
2021/12/13 00:44:01;;;;;;;;;;;10.40;88.70;;;;;;4978547;28;19930;-82
2021/12/13 00:46:31;;;;;;;;;;;10.40;88.70;;;;;;4954801;28;19937;-83
2021/12/13 00:49:03;;;;;;;;;;;10.40;88.80;;;;;;4963782;28;19934;-83
2021/12/13 00:51:33;;;;;;;;;;;10.40;88.70;;;;;;4971725;28;19933;-83
2021/12/13 00:54:03;;;;;;;;;;;10.50;88.70;;;;;;4977243;28;20384;-83
2021/12/13 00:56:49;;;;;;;;;;;10.50;88.70;;;;;;4974294;28;19933;-83
2021/12/13 00:59:24;;;;;;;;;;;10.50;88.70;;;;;;4976032;28;19927;-83
2021/12/13 01:01:54;;;;;;;;;;;10.60;88.60;;;;;;4970020;28;19940;-83
2021/12/13 01:04:22;;;;;;;;;;;10.50;88.60;;;;;;4976820;28;19926;-83
2021/12/13 01:06:59;;;;;;;;;;;10.50;88.70;;;;;;4979994;28;19926;-84
2021/12/13 01:09:45;;;;;;;;;;;10.60;88.70;;;;;;4978891;28;19926;-85
2021/12/13 01:12:14;;;;;;;;;;;10.60;88.70;;;;;;4975451;28;19933;-84
2021/12/13 01:14:57;;;;;;;;;;;10.50;88.70;;;;;;4974773;28;19998;-82
2021/12/13 01:17:43;;;;;;;;;;;10.60;88.80;;;;;;4986594;28;19926;-83
2021/12/13 01:20:26;;;;;;;;;;;10.50;88.80;;;;;;4961204;28;19933;-83
2021/12/13 01:23:02;;;;;;;;;;;10.50;88.90;;;;;;4960177;28;19926;-84
2021/12/13 01:28:44;;;;;;;;;;;10.50;88.90;;;;;;4881275;29;19934;-84
2021/12/13 01:31:33;;;;;;;;;;;10.50;88.90;;;;;;4850297;29;19935;-83
2021/12/13 01:34:01;;;;;;;;;;;10.50;89.00;;;;;;4893595;29;20595;-83
2021/12/13 01:36:37;;;;;;;;;;;10.60;89.00;;;;;;4878827;29;19932;-85
2021/12/13 01:39:07;;;;;;;;;;;10.50;89.00;;;;;;4880942;29;20175;-82
2021/12/13 01:41:48;;;;;;;;;;;10.50;89.00;;;;;;4879386;29;19928;-82
2021/12/13 01:44:19;;;;;;;;;;;10.50;89.20;;;;;;4879966;29;20120;-82
2021/12/13 01:46:48;;;;;;;;;;;10.50;89.30;;;;;;4880193;29;19942;-82
2021/12/13 01:49:16;;;;;;;;;;;10.50;89.40;;;;;;4886619;29;20297;-83
2021/12/13 01:51:44;;;;;;;;;;;10.50;89.40;;;;;;4875353;29;19928;-83
2021/12/13 01:54:14;;;;;;;;;;;10.50;89.50;;;;;;4876919;29;19927;-83
2021/12/13 01:57:23;;;;;;;;;;;10.50;89.50;;;;;;4881605;29;19935;-82
2021/12/13 01:59:54;;;;;;;;;;;10.50;89.50;;;;;;4851867;29;20099;-82
2021/12/13 02:02:32;;;;;;;;;;;10.50;89.60;;;;;;4885108;29;20309;-83
2021/12/13 02:05:00;;;;;;;;;;;10.50;89.60;;;;;;4917896;28;19933;-82
2021/12/13 02:07:34;;;;;;;;;;;10.50;89.50;;;;;;4978438;28;19926;-83
2021/12/13 02:10:03;;;;;;;;;;;10.50;89.50;;;;;;4993598;28;19926;-82
2021/12/13 02:12:31;;;;;;;;;;;10.50;89.50;;;;;;4992880;28;19930;-83
2021/12/13 02:17:46;;;;;;;;;;;10.50;89.60;;;;;;4976262;28;19933;-83
2021/12/13 02:20:18;;;;;;;;;;;10.50;89.60;;;;;;4991616;28;19930;-83
2021/12/13 02:22:48;;;;;;;;;;;10.50;89.70;;;;;;4978510;28;19926;-83
2021/12/13 02:25:36;;;;;;;;;;;10.60;89.70;;;;;;4979085;28;20318;-83
2021/12/13 02:28:06;;;;;;;;;;;10.60;89.70;;;;;;4982931;28;19940;-82
2021/12/13 02:30:45;;;;;;;;;;;10.60;89.60;;;;;;4977702;28;19933;-82
2021/12/13 02:33:14;;;;;;;;;;;10.50;89.60;;;;;;4979960;28;19926;-83
2021/12/13 02:35:44;;;;;;;;;;;10.60;89.60;;;;;;4991222;28;19933;-84
2021/12/13 02:38:12;;;;;;;;;;;10.60;89.60;;;;;;4974552;28;19929;-83
2021/12/13 02:40:40;;;;;;;;;;;10.60;89.60;;;;;;4968541;28;19930;-82
2021/12/13 02:43:09;;;;;;;;;;;10.60;89.60;;;;;;4976382;28;20287;-83
2021/12/13 02:45:42;;;;;;;;;;;10.60;89.60;;;;;;4973888;28;19937;-83
2021/12/13 02:48:13;;;;;;;;;;;10.60;89.70;;;;;;4963070;28;19926;-83
2021/12/13 02:50:43;;;;;;;;;;;10.60;89.90;;;;;;4980304;28;19937;-83
2021/12/13 02:53:13;;;;;;;;;;;10.60;90.00;;;;;;4991988;28;19941;-82
2021/12/13 02:55:40;;;;;;;;;;;10.60;90.10;;;;;;4984751;28;20380;-82
2021/12/13 02:58:09;;;;;;;;;;;10.50;90.20;;;;;;4988459;28;20384;-83
2021/12/13 03:00:44;;;;;;;;;;;10.50;90.30;;;;;;4972955;28;19926;-82
2021/12/13 03:03:14;;;;;;;;;;;10.50;90.50;;;;;;4985972;28;19932;-82
2021/12/13 03:05:43;;;;;;;;;;;10.50;90.60;;;;;;4973888;28;19934;-82
2021/12/13 03:08:34;;;;;;;;;;;10.50;90.60;;;;;;4964404;28;19929;-82
2021/12/13 03:11:05;;;;;;;;;;;10.40;90.80;;;;;;4973986;28;19926;-82
2021/12/13 03:13:32;;;;;;;;;;;10.40;90.90;;;;;;4973219;28;19934;-82
2021/12/13 03:16:05;;;;;;;;;;;10.40;91.00;;;;;;4973569;28;19942;-82
2021/12/13 03:18:44;;;;;;;;;;;10.40;91.20;;;;;;4984497;28;19925;-82
2021/12/13 03:21:21;;;;;;;;;;;10.40;91.30;;;;;;4974630;28;19930;-81
2021/12/13 03:23:51;;;;;;;;;;;10.30;91.50;;;;;;4964779;28;19926;-84
2021/12/13 03:26:25;;;;;;;;;;;10.30;91.50;;;;;;4985998;28;19933;-82
2021/12/13 03:29:09;;;;;;;;;;;10.30;91.70;;;;;;4986558;28;19933;-82
2021/12/13 03:31:39;;;;;;;;;;;10.30;92.10;;;;;;4972216;28;19937;-82
2021/12/13 03:34:09;;;;;;;;;;;10.30;92.20;;;;;;4983666;28;19926;-82
2021/12/13 03:36:36;;;;;;;;;;;10.30;92.40;;;;;;4976450;28;19926;-82
2021/12/13 03:39:05;;;;;;;;;;;10.40;92.50;;;;;;4988172;28;19926;-83
2021/12/13 03:41:35;;;;;;;;;;;10.30;92.50;;;;;;4973659;28;19930;-83
2021/12/13 03:44:06;;;;;;;;;;;10.40;92.50;;;;;;4976111;28;19930;-83
2021/12/13 03:46:34;;;;;;;;;;;10.40;92.60;;;;;;4985834;28;19941;-83
2021/12/13 03:49:03;;;;;;;;;;;10.40;92.50;;;;;;4964165;28;19933;-83
2021/12/13 03:51:32;;;;;;;;;;;10.40;92.50;;;;;;4984264;28;19926;-83
2021/12/13 03:54:01;;;;;;;;;;;10.40;92.50;;;;;;4988680;28;19929;-83
2021/12/13 03:56:30;;;;;;;;;;;10.50;92.40;;;;;;4959663;28;19932;-82
2021/12/13 03:59:00;;;;;;;;;;;10.50;92.20;;;;;;4982712;28;20291;-82
2021/12/13 04:01:48;;;;;;;;;;;10.50;92.10;;;;;;4981035;28;19933;-82
2021/12/13 04:04:20;;;;;;;;;;;10.50;92.00;;;;;;4970375;28;20315;-82
2021/12/13 04:06:50;;;;;;;;;;;10.50;91.80;;;;;;4983328;28;20295;-82
2021/12/13 04:09:18;;;;;;;;;;;10.50;91.70;;;;;;4973400;28;20339;-82
2021/12/13 04:11:46;;;;;;;;;;;10.50;91.60;;;;;;4971245;28;19933;-82
2021/12/13 04:14:21;;;;;;;;;;;10.50;91.60;;;;;;4975416;28;19926;-82
2021/12/13 04:17:20;;;;;;;;;;;10.50;91.50;;;;;;4975580;28;19933;-81
2021/12/13 04:19:57;;;;;;;;;;;10.50;91.50;;;;;;4963598;28;19927;-81
2021/12/13 04:22:31;;;;;;;;;;;10.50;91.50;;;;;;4978775;28;19933;-81
2021/12/13 04:25:04;;;;;;;;;;;10.40;91.50;;;;;;4980403;28;20394;-82
2021/12/13 04:27:40;;;;;;;;;;;10.40;91.50;;;;;;4973819;28;19940;-82
2021/12/13 04:30:28;;;;;;;;;;;10.40;91.50;;;;;;4974327;28;19985;-82
2021/12/13 04:33:00;;;;;;;;;;;10.40;91.40;;;;;;4959429;28;20318;-82
2021/12/13 04:35:29;;;;;;;;;;;10.50;91.40;;;;;;4975563;28;19926;-82
2021/12/13 04:37:58;;;;;;;;;;;10.40;91.20;;;;;;4975081;28;19948;-82
2021/12/13 04:40:28;;;;;;;;;;;10.40;91.20;;;;;;4975393;28;20007;-82
2021/12/13 04:42:59;;;;;;;;;;;10.40;91.10;;;;;;4974946;28;19935;-83
2021/12/13 04:45:27;;;;;;;;;;;10.40;91.10;;;;;;4975885;28;19934;-82
2021/12/13 04:48:04;;;;;;;;;;;10.40;91.10;;;;;;4974836;28;20296;-82
2021/12/13 04:50:51;;;;;;;;;;;10.40;90.90;;;;;;4978409;28;19945;-82
2021/12/13 04:53:39;;;;;;;;;;;10.40;90.50;;;;;;4980156;28;19926;-82
2021/12/13 04:56:11;;;;;;;;;;;10.40;90.40;;;;;;4991433;28;19926;-82
2021/12/13 04:58:40;;;;;;;;;;;10.40;90.30;;;;;;4977748;28;19926;-82
2021/12/13 05:01:10;;;;;;;;;;;10.40;90.40;;;;;;4966434;28;19925;-82
2021/12/13 05:03:39;;;;;;;;;;;10.40;90.40;;;;;;4946093;28;19925;-83
2021/12/13 05:06:09;;;;;;;;;;;10.40;90.40;;;;;;4978986;28;19930;-83
2021/12/13 05:08:38;;;;;;;;;;;10.30;90.50;;;;;;4976632;28;19930;-83
2021/12/13 05:11:07;;;;;;;;;;;10.30;90.50;;;;;;4978293;28;20303;-83
2021/12/13 05:13:52;;;;;;;;;;;10.30;90.50;;;;;;4977280;28;19933;-82
2021/12/13 05:16:27;;;;;;;;;;;10.30;90.70;;;;;;4986702;28;19933;-83
2021/12/13 05:18:56;;;;;;;;;;;10.30;90.80;;;;;;4966660;28;20018;-82
2021/12/13 05:21:26;;;;;;;;;;;10.30;90.90;;;;;;4977471;28;19941;-82
2021/12/13 05:23:59;;;;;;;;;;;10.30;91.00;;;;;;4976227;28;20292;-83
2021/12/13 05:26:45;;;;;;;;;;;10.30;91.00;;;;;;4977056;28;19933;-82
2021/12/13 05:29:27;;;;;;;;;;;10.30;91.10;;;;;;4979002;28;19927;-82
2021/12/13 05:32:12;;;;;;;;;;;10.30;91.20;;;;;;4974182;28;19933;-82
2021/12/13 05:34:43;;;;;;;;;;;10.30;91.20;;;;;;4964080;28;19930;-83
2021/12/13 05:37:11;;;;;;;;;;;10.30;91.30;;;;;;4969245;28;19933;-82
2021/12/13 05:40:06;;;;;;;;;;;10.20;91.30;;;;;;4973193;28;19941;-82
2021/12/13 05:42:36;;;;;;;;;;;10.20;91.30;;;;;;4990766;28;19945;-83
2021/12/13 05:45:06;;;;;;;;;;;10.20;91.40;;;;;;4974287;28;20292;-82
2021/12/13 05:47:35;;;;;;;;;;;10.20;91.50;;;;;;4981659;28;19936;-83
2021/12/13 05:50:07;;;;;;;;;;;10.20;91.50;;;;;;4984160;28;19934;-82
2021/12/13 05:52:39;;;;;;;;;;;10.20;91.60;;;;;;4975312;28;19933;-83
2021/12/13 05:55:12;;;;;;;;;;;10.20;91.60;;;;;;4979691;28;19930;-83
2021/12/13 05:57:44;;;;;;;;;;;10.10;91.60;;;;;;4974335;28;19926;-82
2021/12/13 06:00:20;;;;;;;;;;;10.10;91.60;;;;;;4974182;28;20307;-82
2021/12/13 06:02:58;;;;;;;;;;;10.10;91.70;;;;;;4986709;28;19930;-82
2021/12/13 06:05:28;;;;;;;;;;;10.10;91.70;;;;;;4942833;28;20300;-82
2021/12/13 06:08:06;;;;;;;;;;;10.10;91.70;;;;;;4961769;28;19926;-82
2021/12/13 06:10:57;;;;;;;;;;;10.10;91.70;;;;;;4973735;28;19930;-82
2021/12/13 06:13:51;;;;;;;;;;;10.10;91.70;;;;;;4981838;28;19976;-82
2021/12/13 06:16:31;;;;;;;;;;;10.10;91.60;;;;;;4985005;28;19937;-83
2021/12/13 06:18:58;;;;;;;;;;;10.10;91.50;;;;;;4977464;28;19948;-82
2021/12/13 06:21:31;;;;;;;;;;;10.00;91.50;;;;;;4972913;28;19944;-82
2021/12/13 06:23:59;;;;;;;;;;;10.00;91.50;;;;;;4973795;28;19926;-82
2021/12/13 06:26:28;;;;;;;;;;;10.00;91.50;;;;;;4973078;28;19926;-82
2021/12/13 06:28:58;;;;;;;;;;;10.00;91.60;;;;;;4973473;28;19934;-82
2021/12/13 06:31:34;;;;;;;;;;;10.00;91.60;;;;;;4973486;28;19933;-83
2021/12/13 06:34:04;;;;;;;;;;;10.00;91.70;;;;;;4974098;28;19933;-82
2021/12/13 06:36:33;;;;;;;;;;;10.00;91.70;;;;;;4974299;28;19941;-81
2021/12/13 06:39:04;;;;;;;;;;;10.00;91.70;;;;;;4956320;28;20312;-81
2021/12/13 06:41:34;;;;;;;;;;;9.90;91.80;;;;;;4973228;28;19933;-81
2021/12/13 06:44:07;;;;;;;;;;;9.90;91.80;;;;;;4972510;28;20414;-81
2021/12/13 06:46:38;;;;;;;;;;;9.90;91.90;;;;;;4987956;28;19926;-82
2021/12/13 06:49:38;;;;;;;;;;;9.90;92.00;;;;;;4973202;28;19926;-82
2021/12/13 06:52:06;;;;;;;;;;;9.90;92.00;;;;;;4932605;29;19942;-79
2021/12/13 06:54:35;;;;;;;;;;;9.90;92.10;;;;;;4925275;29;19937;-81
2021/12/13 06:57:15;;;;;;;;;;;9.80;92.20;;;;;;4949556;28;19934;-81
2021/12/13 06:59:48;;;;;;;;;;;9.80;92.30;;;;;;4928156;29;19926;-82
2021/12/13 07:02:27;;;;;;;;;;;9.80;92.30;;;;;;4941992;29;19927;-85
2021/12/13 07:04:55;;;;;;;;;;;9.80;92.40;;;;;;4916270;29;19938;-82
2021/12/13 07:07:25;;;;;;;;;;;9.70;92.50;;;;;;4931553;29;19937;-83
2021/12/13 07:09:56;;;;;;;;;;;9.70;92.60;;;;;;4932721;29;20405;-80
2021/12/13 07:12:26;;;;;;;;;;;9.70;92.70;;;;;;4935231;29;21778;-81
2021/12/13 07:14:54;;;;;;;;;;;9.70;92.80;;;;;;4932653;29;19938;-81
2021/12/13 07:17:31;;;;;;;;;;;9.60;92.80;;;;;;4932366;29;19926;-80
2021/12/13 07:20:00;;;;;;;;;;;9.60;92.90;;;;;;4917359;29;20357;-80
2021/12/13 07:22:30;;;;;;;;;;;9.60;92.90;;;;;;4932567;29;19933;-81
2021/12/13 07:25:17;;;;;;;;;;;9.60;92.90;;;;;;4930861;29;19927;-81
2021/12/13 07:27:46;;;;;;;;;;;9.70;92.90;;;;;;4954272;28;19931;-81
2021/12/13 07:30:14;;;;;;;;;;;9.70;93.00;;;;;;4978646;28;19930;-80
2021/12/13 07:32:45;;;;;;;;;;;9.60;93.00;;;;;;4972186;28;20376;-80
2021/12/13 07:35:23;;;;;;;;;;;9.60;93.00;;;;;;4986534;28;19926;-80
2021/12/13 07:37:56;;;;;;;;;;;9.70;93.00;;;;;;4989935;28;19944;-81
2021/12/13 07:40:31;;;;;;;;;;;9.70;93.10;;;;;;4973006;28;20300;-80
2021/12/13 07:43:14;;;;;;;;;;;9.60;93.10;;;;;;4962865;28;19942;-81
2021/12/13 07:45:42;;;;;;;;;;;9.60;93.10;;;;;;4958212;28;19926;-81
2021/12/13 07:48:17;;;;;;;;;;;9.70;93.10;;;;;;4973614;28;19933;-80
2021/12/13 07:50:54;;;;;;;;;;;9.60;93.10;;;;;;4974290;28;19949;-81
2021/12/13 07:53:25;;;;;;;;;;;9.60;93.20;;;;;;4972672;28;19937;-81
2021/12/13 07:55:53;;;;;;;;;;;9.60;93.20;;;;;;4989784;28;19929;-81
2021/12/13 07:58:41;;;;;;;;;;;9.60;93.20;;;;;;4958581;28;19926;-81
2021/12/13 08:01:20;;;;;;;;;;;9.60;93.20;;;;;;4981420;28;19941;-81
2021/12/13 08:04:08;;;;;;;;;;;9.60;93.20;;;;;;4980174;28;19926;-84
2021/12/13 08:06:40;;;;;;;;;;;9.60;93.20;;;;;;4958710;28;19926;-81
2021/12/13 08:09:12;;;;;;;;;;;9.60;93.20;;;;;;4982691;28;20383;-81
2021/12/13 08:11:39;;;;;;;;;;;9.60;93.20;;;;;;4973048;28;19933;-81
2021/12/13 08:14:07;;;;;;;;;;;9.60;93.20;;;;;;4979365;28;19930;-80
2021/12/13 08:16:42;;;;;;;;;;;9.60;93.30;;;;;;4981680;28;20307;-81
2021/12/13 08:19:18;;;;;;;;;;;9.60;93.30;;;;;;4978691;28;20002;-83
2021/12/13 08:21:47;;;;;;;;;;;9.60;93.30;;;;;;4974496;28;19930;-83
2021/12/13 08:24:20;;;;;;;;;;;9.60;93.30;;;;;;4974598;28;19938;-82
2021/12/13 08:26:53;;;;;;;;;;;9.50;93.30;;;;;;4991468;28;19937;-83
2021/12/13 08:29:25;;;;;;;;;;;9.60;93.30;;;;;;4992003;28;19933;-83
2021/12/13 08:31:54;;;;;;;;;;;9.50;93.30;;;;;;4992190;28;19933;-82
2021/12/13 08:34:36;;;;;;;;;;;9.50;93.40;;;;;;4989612;28;19925;-83
2021/12/13 08:37:30;;;;;;;;;;;9.50;93.40;;;;;;4981507;28;20307;-82
2021/12/13 08:40:01;;;;;;;;;;;9.50;93.40;;;;;;4956610;28;19934;-83
2021/12/13 08:42:30;;;;;;;;;;;9.60;93.40;;;;;;4974663;28;19926;-80
2021/12/13 08:45:07;;;;;;;;;;;9.60;93.40;;;;;;4972435;28;19942;-82
2021/12/13 08:47:41;;;;;;;;;;;9.50;93.40;;;;;;4988069;28;19930;-82
2021/12/13 08:50:15;;;;;;;;;;;9.60;93.50;;;;;;4972718;28;20402;-82
2021/12/13 08:52:44;;;;;;;;;;;9.60;93.50;;;;;;4972473;28;19926;-82
2021/12/13 08:55:11;;;;;;;;;;;9.60;93.50;;;;;;4972929;28;19926;-81
2021/12/13 08:57:45;;;;;;;;;;;9.60;93.50;;;;;;4972473;28;19934;-81
2021/12/13 09:00:12;;;;;;;;;;;9.60;93.50;;;;;;4973263;28;19926;-82
2021/12/13 09:02:48;;;;;;;;;;;9.70;93.50;;;;;;4972403;28;20270;-81
2021/12/13 09:05:21;;;;;;;;;;;9.60;93.50;;;;;;4972174;28;20321;-81
2021/12/13 09:07:55;;;;;;;;;;;9.60;93.50;;;;;;4975730;28;20276;-80
2021/12/13 09:10:35;;;;;;;;;;;9.70;93.50;;;;;;4975732;28;19933;-81
2021/12/13 09:13:03;;;;;;;;;;;9.70;93.60;;;;;;4975393;28;19933;-80
2021/12/13 09:15:33;;;;;;;;;;;9.60;93.60;;;;;;4975801;28;19926;-81
2021/12/13 09:18:00;;;;;;;;;;;9.70;93.60;;;;;;4975338;28;19926;-81
2021/12/13 09:20:41;;;;;;;;;;;9.70;93.60;;;;;;4990558;28;19933;-81
2021/12/13 09:23:08;;;;;;;;;;;9.70;93.60;;;;;;4975910;28;19948;-81
2021/12/13 09:25:41;;;;;;;;;;;9.70;93.60;;;;;;4975702;28;19930;-81
2021/12/13 09:28:14;;;;;;;;;;;9.70;93.60;;;;;;4975813;28;19926;-81
2021/12/13 09:31:01;;;;;;;;;;;9.70;93.60;;;;;;4958583;28;19930;-81
2021/12/13 09:33:37;;;;;;;;;;;9.70;93.60;;;;;;4974863;28;20410;-79
2021/12/13 09:36:05;;;;;;;;;;;9.80;93.60;;;;;;4975393;28;19926;-80
2021/12/13 09:38:35;;;;;;;;;;;9.80;93.60;;;;;;4975599;28;19930;-80
2021/12/13 09:41:07;;;;;;;;;;;9.80;93.60;;;;;;4975653;28;19969;-81
2021/12/13 09:43:34;;;;;;;;;;;9.80;93.60;;;;;;4975557;28;19926;-81
2021/12/13 09:46:03;;;;;;;;;;;9.80;93.60;;;;;;4958250;28;19934;-81
2021/12/13 09:48:34;;;;;;;;;;;9.90;93.60;;;;;;4974745;28;19933;-81
2021/12/13 09:51:10;;;;;;;;;;;9.90;93.60;;;;;;4974516;28;19926;-81
2021/12/13 09:53:38;;;;;;;;;;;10.00;93.60;;;;;;4974352;28;19926;-81
2021/12/13 09:56:11;;;;;;;;;;;10.00;93.60;;;;;;4957998;28;19937;-81
2021/12/13 09:58:41;;;;;;;;;;;10.10;93.60;;;;;;4974662;28;20299;-81
2021/12/13 10:01:17;;;;;;;;;;;10.20;93.60;;;;;;4974612;28;20299;-81
2021/12/13 10:03:48;;;;;;;;;;;10.20;93.50;;;;;;4956891;28;19933;-80
2021/12/13 10:06:18;;;;;;;;;;;10.30;93.40;;;;;;4973586;28;19945;-81
2021/12/13 10:08:46;;;;;;;;;;;10.40;93.30;;;;;;4975041;28;20234;-81
2021/12/13 10:11:17;;;;;;;;;;;10.40;93.20;;;;;;4974553;28;19926;-81
2021/12/13 10:13:46;;;;;;;;;;;10.50;93.10;;;;;;4974707;28;19937;-80
2021/12/13 10:16:16;;;;;;;;;;;10.50;93.00;;;;;;4973736;28;20288;-81
2021/12/13 10:18:45;;;;;;;;;;;10.50;93.00;;;;;;4974128;28;19930;-81
2021/12/13 10:21:15;;;;;;;;;;;10.50;92.90;;;;;;4989720;28;19927;-81
2021/12/13 10:23:46;;;;;;;;;;;10.40;92.80;;;;;;4974583;28;19937;-81
2021/12/13 10:26:25;;;;;;;;;;;10.40;92.80;;;;;;4974374;28;20406;-81
2021/12/13 10:28:54;;;;;;;;;;;10.40;92.80;;;;;;4974794;28;19930;-80
2021/12/13 10:31:28;;;;;;;;;;;10.30;92.80;;;;;;4974583;28;19926;-81
2021/12/13 10:33:57;;;;;;;;;;;10.30;92.80;;;;;;4974848;28;19933;-82
2021/12/13 10:36:28;;;;;;;;;;;10.30;92.80;;;;;;4974935;28;19930;-82
2021/12/13 10:38:57;;;;;;;;;;;10.30;92.90;;;;;;4976332;28;19937;-81
2021/12/13 10:41:35;;;;;;;;;;;10.30;92.80;;;;;;4975030;28;20276;-81
2021/12/13 10:44:05;;;;;;;;;;;10.30;92.80;;;;;;4974763;28;19926;-81
2021/12/13 10:46:35;;;;;;;;;;;10.30;92.80;;;;;;4972612;28;19926;-81
2021/12/13 10:49:05;;;;;;;;;;;10.30;92.90;;;;;;4973034;28;19926;-82
2021/12/13 10:51:36;;;;;;;;;;;10.30;92.80;;;;;;4974273;28;19926;-82
2021/12/13 10:54:11;;;;;;;;;;;10.30;92.80;;;;;;4957110;28;19926;-81
2021/12/13 10:56:42;;;;;;;;;;;10.30;92.80;;;;;;4974249;28;19930;-81
2021/12/13 10:59:11;;;;;;;;;;;10.30;92.80;;;;;;4973626;28;19930;-81
2021/12/13 11:01:44;;;;;;;;;;;10.30;92.80;;;;;;4973190;28;19937;-81
2021/12/13 11:04:15;;;;;;;;;;;10.30;92.70;;;;;;4973734;28;19926;-81
2021/12/13 11:06:43;;;;;;;;;;;10.30;92.80;;;;;;4973963;28;19926;-81
2021/12/13 11:09:13;;;;;;;;;;;10.30;92.80;;;;;;4974220;28;19945;-81
2021/12/13 11:11:43;;;;;;;;;;;10.30;92.80;;;;;;4973804;28;19926;-81
2021/12/13 11:14:14;;;;;;;;;;;10.20;92.70;;;;;;4973110;28;19926;-81
2021/12/13 11:16:43;;;;;;;;;;;10.20;92.80;;;;;;4973420;28;20368;-81
2021/12/13 11:19:13;;;;;;;;;;;10.20;92.70;;;;;;4973969;28;19926;-79
2021/12/13 11:21:42;;;;;;;;;;;10.20;92.50;;;;;;4973057;28;19933;-81
2021/12/13 11:24:12;;;;;;;;;;;10.20;92.50;;;;;;4940343;28;19941;-82
2021/12/13 11:26:41;;;;;;;;;;;10.20;92.50;;;;;;4972819;28;19926;-81
2021/12/13 11:29:11;;;;;;;;;;;10.20;92.50;;;;;;4971323;28;19931;-80
2021/12/13 11:31:47;;;;;;;;;;;10.20;92.50;;;;;;4970569;28;19926;-80
2021/12/13 11:34:33;;;;;;;;;;;10.30;92.40;;;;;;4973564;28;19926;-80
2021/12/13 11:37:07;;;;;;;;;;;10.30;92.40;;;;;;4973818;28;19926;-81
2021/12/13 11:40:01;;;;;;;;;;;10.30;92.30;;;;;;4974137;28;19926;-80
2021/12/13 11:42:47;;;;;;;;;;;10.30;92.30;;;;;;4958589;28;19926;-80
2021/12/13 11:45:31;;;;;;;;;;;10.30;92.30;;;;;;4973015;28;20305;-80
2021/12/13 11:48:06;;;;;;;;;;;10.30;92.30;;;;;;4973155;28;19926;-80
2021/12/13 11:50:49;;;;;;;;;;;10.30;92.20;;;;;;4956613;28;19926;-81
2021/12/13 11:53:35;;;;;;;;;;;10.30;92.30;;;;;;4956852;28;19933;-80
2021/12/13 11:56:21;;;;;;;;;;;10.30;92.20;;;;;;4972552;28;19926;-81
2021/12/13 11:58:52;;;;;;;;;;;10.30;92.00;;;;;;4969195;28;19930;-81
2021/12/13 12:01:40;;;;;;;;;;;10.20;91.90;;;;;;4972114;28;19937;-81
2021/12/13 12:04:08;;;;;;;;;;;10.20;92.00;;;;;;4972319;28;19930;-81
2021/12/13 12:06:44;;;;;;;;;;;10.10;91.90;;;;;;4970970;28;19926;-82
2021/12/13 12:09:30;;;;;;;;;;;10.00;91.90;;;;;;4969615;28;19926;-81
2021/12/13 12:12:06;;;;;;;;;;;10.00;92.00;;;;;;4970781;28;19937;-81
2021/12/13 12:14:34;;;;;;;;;;;10.00;92.00;;;;;;4969877;28;19949;-81
2021/12/13 12:17:03;;;;;;;;;;;9.90;92.00;;;;;;4971995;28;19926;-82
2021/12/13 12:19:33;;;;;;;;;;;9.90;92.00;;;;;;4972514;28;19932;-80
2021/12/13 12:22:16;;;;;;;;;;;9.90;92.10;;;;;;4972803;28;19949;-81
2021/12/13 12:24:45;;;;;;;;;;;9.90;92.20;;;;;;4973027;28;19961;-80
2021/12/13 12:27:15;;;;;;;;;;;9.90;92.20;;;;;;4971131;28;19926;-79
2021/12/13 12:29:44;;;;;;;;;;;9.80;92.30;;;;;;4955141;28;19926;-80
2021/12/13 12:32:14;;;;;;;;;;;9.80;92.30;;;;;;4971847;28;19926;-78
2021/12/13 12:34:50;;;;;;;;;;;9.80;92.30;;;;;;4971258;28;19930;-78
2021/12/13 12:37:27;;;;;;;;;;;9.80;92.30;;;;;;4972277;28;19937;-79
2021/12/13 12:40:07;;;;;;;;;;;9.80;92.30;;;;;;4953074;28;19926;-79
2021/12/13 12:42:36;;;;;;;;;;;9.80;92.40;;;;;;4973726;28;19926;-78
2021/12/13 12:45:15;;;;;;;;;;;9.80;92.40;;;;;;4976173;28;19930;-79
2021/12/13 12:47:42;;;;;;;;;;;9.80;92.50;;;;;;4957899;28;19926;-79
2021/12/13 12:50:22;;;;;;;;;;;9.80;92.40;;;;;;4974662;28;19933;-78
2021/12/13 12:52:52;;;;;;;;;;;9.80;92.40;;;;;;4975188;28;19933;-79
2021/12/13 12:55:27;;;;;;;;;;;9.80;92.40;;;;;;4975736;28;19933;-79
2021/12/13 12:57:56;;;;;;;;;;;9.80;92.40;;;;;;4973215;28;19929;-78
2021/12/13 13:00:28;;;;;;;;;;;9.90;92.40;;;;;;4958800;28;20315;-79
2021/12/13 13:02:56;;;;;;;;;;;9.80;92.40;;;;;;4973412;28;19926;-79
2021/12/13 13:05:26;;;;;;;;;;;9.90;92.50;;;;;;4974427;28;19938;-80
2021/12/13 13:07:54;;;;;;;;;;;9.90;92.40;;;;;;4971939;28;19930;-80
2021/12/13 13:11:26;;;;;;;;;;;9.90;92.40;;;;;;4974779;28;19926;-78
2021/12/13 13:13:11;;;;;;;;;;;10.00;92.40;;;;;;4954671;28;19926;-78
2021/12/13 13:15:41;;;;;;;;;;;9.90;92.40;;;;;;4975034;28;19930;-79
2021/12/13 13:18:14;;;;;;;;;;;10.00;92.30;;;;;;4975121;28;19930;-79
2021/12/13 13:20:43;;;;;;;;;;;9.90;92.30;;;;;;4957877;28;20393;-78
2021/12/13 13:23:12;;;;;;;;;;;9.90;92.40;;;;;;4957167;28;20380;-79
2021/12/13 13:25:41;;;;;;;;;;;9.80;92.30;;;;;;4974472;28;19930;-78
2021/12/13 13:28:14;;;;;;;;;;;9.80;92.40;;;;;;4974627;28;19926;-78
2021/12/13 13:30:46;;;;;;;;;;;9.80;92.40;;;;;;4975103;28;20295;-78
2021/12/13 13:33:14;;;;;;;;;;;9.80;92.30;;;;;;4972345;28;20311;-79
2021/12/13 13:35:42;;;;;;;;;;;9.80;92.30;;;;;;4974291;28;19933;-78
2021/12/13 13:38:16;;;;;;;;;;;9.70;92.30;;;;;;4974674;28;19930;-79
2021/12/13 13:40:44;;;;;;;;;;;9.60;92.40;;;;;;4972191;28;19937;-79
2021/12/13 13:43:12;;;;;;;;;;;9.60;92.40;;;;;;4974525;28;19930;-78
2021/12/13 13:45:45;;;;;;;;;;;9.60;92.50;;;;;;4974258;28;19933;-80
2021/12/13 13:48:16;;;;;;;;;;;9.60;92.50;;;;;;4974222;28;19926;-78
2021/12/13 13:50:46;;;;;;;;;;;9.60;92.50;;;;;;4977318;28;20376;-78
2021/12/13 13:53:19;;;;;;;;;;;9.60;92.60;;;;;;4974221;28;19941;-78
2021/12/13 13:55:51;;;;;;;;;;;9.60;92.50;;;;;;4981277;28;19933;-79
2021/12/13 13:58:21;;;;;;;;;;;9.60;92.50;;;;;;4981376;28;19926;-79
2021/12/13 14:00:57;;;;;;;;;;;9.60;92.50;;;;;;4981795;28;19926;-78
2021/12/13 14:03:33;;;;;;;;;;;9.50;92.40;;;;;;4994365;28;19926;-79
2021/12/13 14:06:02;;;;;;;;;;;9.50;92.50;;;;;;4994559;28;19933;-78
2021/12/13 14:08:31;;;;;;;;;;;9.40;92.50;;;;;;4993270;28;19930;-78
2021/12/13 14:11:01;;;;;;;;;;;9.40;92.50;;;;;;4985931;28;19926;-79
2021/12/13 14:13:32;;;;;;;;;;;9.40;92.50;;;;;;4975437;28;19926;-79
2021/12/13 14:16:08;;;;;;;;;;;9.40;92.60;;;;;;4984286;28;19938;-78
2021/12/13 14:18:35;;;;;;;;;;;9.30;92.60;;;;;;4983962;28;19933;-79
2021/12/13 14:21:10;;;;;;;;;;;9.30;92.60;;;;;;4982777;28;20384;-79
2021/12/13 14:23:38;;;;;;;;;;;9.30;92.60;;;;;;4962645;28;19933;-78
2021/12/13 14:26:05;;;;;;;;;;;9.30;92.70;;;;;;4983594;28;19932;-78
2021/12/13 14:28:46;;;;;;;;;;;9.30;92.70;;;;;;4966864;28;19929;-77
2021/12/13 14:31:15;;;;;;;;;;;9.30;92.60;;;;;;4961847;28;19933;-79
2021/12/13 14:33:45;;;;;;;;;;;9.30;92.60;;;;;;4987247;28;19926;-79
2021/12/13 14:36:15;;;;;;;;;;;9.30;92.60;;;;;;4956231;28;19926;-79
2021/12/13 14:38:45;;;;;;;;;;;9.20;92.60;;;;;;4971981;28;19926;-79
2021/12/13 14:41:16;;;;;;;;;;;9.20;92.70;;;;;;4957368;28;20380;-79
2021/12/13 14:44:04;;;;;;;;;;;9.20;92.70;;;;;;4954808;28;20603;-80
2021/12/13 14:46:37;;;;;;;;;;;9.20;92.70;;;;;;4972885;28;19926;-79
2021/12/13 14:49:07;;;;;;;;;;;9.20;92.70;;;;;;4973055;28;20386;-79
2021/12/13 14:51:39;;;;;;;;;;;9.20;92.80;;;;;;4974447;28;19931;-79
2021/12/13 14:54:07;;;;;;;;;;;9.20;92.80;;;;;;4974177;28;19945;-80
2021/12/13 14:56:35;;;;;;;;;;;9.20;92.80;;;;;;4973464;28;19934;-79
2021/12/13 14:59:04;;;;;;;;;;;9.20;92.80;;;;;;4973622;28;19926;-80
2021/12/13 15:01:33;;;;;;;;;;;9.20;92.90;;;;;;4973699;28;20398;-79